createdAt,value
2022-11-07T06:03:09.932Z,8.80
2022-11-07T06:08:30.957Z,8.82
2022-11-07T06:13:53.471Z,8.82
2022-11-07T06:19:14.179Z,8.89
2022-11-07T06:24:35.089Z,8.99
2022-11-07T06:29:55.737Z,9.06
2022-11-07T06:35:16.644Z,9.05
2022-11-07T06:40:38.480Z,9.08
2022-11-07T06:46:02.805Z,9.10
2022-11-07T06:51:23.742Z,9.15
2022-11-07T06:56:44.481Z,9.21
2022-11-07T07:02:05.646Z,9.23
2022-11-07T07:07:26.212Z,9.22
2022-11-07T07:12:47.065Z,9.32
2022-11-07T07:18:08.008Z,9.38
2022-11-07T07:23:28.797Z,9.43
2022-11-07T07:28:49.668Z,9.50
2022-11-07T07:34:11.045Z,9.48
2022-11-07T07:39:32.016Z,9.48
2022-11-07T07:44:52.964Z,9.53
2022-11-07T07:50:14.043Z,9.64
2022-11-07T07:55:35.605Z,9.68
2022-11-07T08:00:58.734Z,9.73
2022-11-07T08:06:19.622Z,9.77
2022-11-07T08:11:40.425Z,9.77
2022-11-07T08:17:01.262Z,10.20
2022-11-07T08:22:22.400Z,10.72
2022-11-07T08:27:43.246Z,10.64
2022-11-07T08:33:04.271Z,10.37
2022-11-07T08:38:25.543Z,10.30
2022-11-07T08:43:47.527Z,10.25
2022-11-07T08:49:08.691Z,10.23
2022-11-07T08:54:29.474Z,10.22
2022-11-07T08:59:50.307Z,10.33
2022-11-07T09:05:11.169Z,10.39
2022-11-07T09:10:31.970Z,10.42
2022-11-07T09:15:57.041Z,10.47
2022-11-07T09:21:22.478Z,10.59
2022-11-07T09:26:43.669Z,10.67
2022-11-07T09:32:17.508Z,10.78
2022-11-07T09:37:45.673Z,10.92
2022-11-07T09:43:24.627Z,11.05
2022-11-07T09:48:50.784Z,11.15
2022-11-07T09:54:22.079Z,11.20
2022-11-07T09:59:44.989Z,11.28
2022-11-07T10:05:06.242Z,11.36
2022-11-07T10:10:39.305Z,11.44
2022-11-07T10:16:09.160Z,11.74
2022-11-07T10:21:41.014Z,11.96
2022-11-07T10:27:02.584Z,12.12
2022-11-07T10:32:23.444Z,12.15
2022-11-07T10:38:04.792Z,12.18
2022-11-07T10:43:36.681Z,12.30
2022-11-07T10:49:00.392Z,12.44
2022-11-07T10:54:31.352Z,13.01
2022-11-07T10:59:52.371Z,13.19
2022-11-07T11:05:28.179Z,13.43
2022-11-07T11:10:50.435Z,13.86
2022-11-07T11:16:14.277Z,14.17
2022-11-07T11:21:40.916Z,14.26
2022-11-07T11:27:09.225Z,14.40
2022-11-07T11:32:41.231Z,14.39
2022-11-07T11:38:21.252Z,14.60
2022-11-07T11:43:49.118Z,14.75
2022-11-07T11:49:19.273Z,14.70
2022-11-07T11:54:40.431Z,14.95
2022-11-07T12:00:13.800Z,14.85
2022-11-07T12:06:02.921Z,15.07
2022-11-07T12:11:38.205Z,14.99
2022-11-07T12:17:03.984Z,14.96
2022-11-07T12:22:56.267Z,15.13
2022-11-07T12:28:20.206Z,14.76
2022-11-07T12:34:04.628Z,14.74
2022-11-07T12:39:34.633Z,14.80
2022-11-07T12:45:07.939Z,14.94
2022-11-07T12:50:56.096Z,15.05
2022-11-07T12:56:24.293Z,14.93
2022-11-07T13:02:05.259Z,15.03
2022-11-07T13:07:33.414Z,15.27
2022-11-07T13:13:15.917Z,15.18
2022-11-07T13:18:37.274Z,14.97
2022-11-07T13:24:05.971Z,14.80
2022-11-07T13:29:36.055Z,14.54
2022-11-07T13:35:00.556Z,14.36
2022-11-07T13:40:27.210Z,14.29
2022-11-07T13:46:00.045Z,14.15
2022-11-07T13:51:20.889Z,14.15
2022-11-07T13:56:59.434Z,14.20
2022-11-07T14:02:22.185Z,14.00
2022-11-07T14:07:54.319Z,13.85
2022-11-07T14:13:39.617Z,13.74
2022-11-07T14:19:07.397Z,13.73
2022-11-07T14:24:32.706Z,13.68
2022-11-07T14:30:01.991Z,13.51
2022-11-07T14:35:33.367Z,13.46
2022-11-07T14:41:01.077Z,13.38
2022-11-07T14:46:24.257Z,13.33
2022-11-07T14:51:45.104Z,13.28
2022-11-07T14:57:07.123Z,13.21
2022-11-07T15:02:33.083Z,13.12
2022-11-07T15:07:55.047Z,13.07
2022-11-07T15:13:24.963Z,12.99
2022-11-07T15:18:48.585Z,12.94
2022-11-07T15:24:26.635Z,12.88
2022-11-07T15:29:58.455Z,12.86
2022-11-07T15:35:42.988Z,12.83
2022-11-07T15:41:01.349Z,12.81
2022-11-07T15:46:26.999Z,12.76
2022-11-07T15:51:47.838Z,12.74
2022-11-07T15:57:11.432Z,12.70
2022-11-07T16:02:32.540Z,12.68
2022-11-07T16:07:53.168Z,12.64
2022-11-07T16:13:15.041Z,12.62
2022-11-07T16:18:44.850Z,12.60
2022-11-07T16:24:05.933Z,12.54
2022-11-07T16:29:26.479Z,12.52
2022-11-07T16:34:47.683Z,12.44
2022-11-07T16:40:13.464Z,12.42
2022-11-07T16:45:35.932Z,12.29
2022-11-07T16:50:57.046Z,12.22
2022-11-07T16:56:26.848Z,12.08
2022-11-07T17:01:48.960Z,12.00
2022-11-07T17:07:14.825Z,12.01
2022-11-07T17:12:35.980Z,12.01
2022-11-07T17:18:00.587Z,12.07
2022-11-07T17:23:29.870Z,12.11
2022-11-07T17:28:52.960Z,12.19
2022-11-07T17:34:14.159Z,12.23
2022-11-07T17:39:35.028Z,12.26
2022-11-07T17:44:55.735Z,12.24
2022-11-07T17:50:19.076Z,12.18
2022-11-07T17:55:40.359Z,12.12
2022-11-07T18:01:01.180Z,12.24
2022-11-07T18:06:23.476Z,12.30
2022-11-07T18:11:44.890Z,12.31
2022-11-07T18:17:06.214Z,12.24
2022-11-07T18:22:27.142Z,12.09
2022-11-07T18:27:48.533Z,12.07
2022-11-07T18:33:09.305Z,12.11
2022-11-07T18:38:30.914Z,12.10
2022-11-07T18:43:54.148Z,12.12
2022-11-07T18:49:16.053Z,12.10
2022-11-07T18:54:37.064Z,12.08
2022-11-07T18:59:57.682Z,12.06
2022-11-07T19:05:18.556Z,12.07
2022-11-07T19:10:39.382Z,12.11
2022-11-07T19:16:00.901Z,12.12
2022-11-07T19:21:23.324Z,12.10
2022-11-07T19:26:44.018Z,12.04
2022-11-07T19:32:06.038Z,12.04
2022-11-07T19:37:26.904Z,12.03
2022-11-07T19:42:47.844Z,11.98
2022-11-07T19:48:08.627Z,11.96
2022-11-07T19:53:29.501Z,11.89
2022-11-07T19:58:50.349Z,11.86
2022-11-07T20:04:11.213Z,11.86
2022-11-07T20:09:32.147Z,11.82
2022-11-07T20:14:52.947Z,11.78
2022-11-07T20:20:14.082Z,11.73
2022-11-07T20:25:35.244Z,11.74
2022-11-07T20:30:56.165Z,11.79
2022-11-07T20:36:17.340Z,11.78
2022-11-07T20:41:41.360Z,11.75
2022-11-07T20:47:02.239Z,11.72
2022-11-07T20:52:22.960Z,11.68
2022-11-07T20:57:44.111Z,11.65
2022-11-07T21:03:05.128Z,11.60
2022-11-07T21:08:25.908Z,11.61
2022-11-07T21:13:52.685Z,11.58
2022-11-07T21:19:15.935Z,11.57
2022-11-07T21:24:36.728Z,11.61
2022-11-07T21:29:57.363Z,11.61
2022-11-07T21:35:18.162Z,11.62
2022-11-07T21:40:39.542Z,11.63
2022-11-07T21:46:13.434Z,11.67
2022-11-07T21:51:36.053Z,11.71
2022-11-07T21:56:56.943Z,11.71
2022-11-07T22:02:17.992Z,11.75
2022-11-07T22:07:38.648Z,11.78
2022-11-07T22:13:00.390Z,11.81
2022-11-07T22:18:22.798Z,11.84
2022-11-07T22:23:43.800Z,11.82
